Time;durP1;ratioP1;P1;durP2;ratioP2;P2;SDS_P1;SDS_P2;PMS_P1;PMS_P2;Temp;Humidity;BMP_temperature;BMP_pressure;BME280_temperature;BME280_humidity;BME280_pressure;Samples;Min_cycle;Max_cycle;Signal;HPM_P1;HPM_P2
2023/06/08 00:01:02;;;;;;;10.15;7.18;;;;;;;11.40;100.00;100557.25;5031973;28;20071;-57
2023/06/08 00:03:32;;;;;;;13.50;8.45;;;;;;;11.34;100.00;100557.34;5032020;28;20149;-60
2023/06/08 00:06:07;;;;;;;12.88;7.20;;;;;;;11.38;100.00;100553.78;5042370;28;20663;-60
2023/06/08 00:08:39;;;;;;;16.30;7.22;;;;;;;11.09;100.00;100494.09;5032322;28;20049;-60
2023/06/08 00:11:10;;;;;;;15.70;7.15;;;;;;;11.51;100.00;100552.72;5041769;28;20067;-59
2023/06/08 00:13:41;;;;;;;12.02;6.85;;;;;;;11.58;100.00;100562.22;5030035;28;20057;-59
2023/06/08 00:16:13;;;;;;;13.10;7.07;;;;;;;11.45;100.00;100545.81;5041693;28;20139;-58
2023/06/08 00:18:44;;;;;;;12.90;7.80;;;;;;;11.60;100.00;100559.56;5031693;28;20048;-60
2023/06/08 00:21:17;;;;;;;12.60;7.60;;;;;;;11.56;100.00;100564.00;5041813;28;20139;-61
2023/06/08 00:23:47;;;;;;;10.50;6.95;;;;;;;11.75;100.00;100568.91;5031915;28;20080;-59
2023/06/08 00:26:18;;;;;;;14.02;6.68;;;;;;;11.93;100.00;100573.91;5060889;28;20741;-60
2023/06/08 00:28:49;;;;;;;11.32;6.32;;;;;;;11.59;99.91;100531.66;5050067;28;20466;-61
2023/06/08 00:31:20;;;;;;;8.52;6.38;;;;;;;11.95;100.00;100577.34;5059777;28;20135;-62
2023/06/08 00:33:51;;;;;;;11.18;5.80;;;;;;;12.19;99.21;100585.69;5050263;28;20069;-62
2023/06/08 00:36:23;;;;;;;6.30;5.18;;;;;;;12.32;97.82;100571.44;5061078;28;20052;-61
2023/06/08 00:38:54;;;;;;;7.90;5.82;;;;;;;12.51;98.11;100575.44;5051089;28;20134;-60
2023/06/08 00:41:27;;;;;;;7.57;5.13;;;;;;;12.67;96.13;100562.03;5061164;28;20048;-58
2023/06/08 00:43:58;;;;;;;8.63;4.90;;;;;;;12.56;94.69;100537.81;5049101;28;20406;-60
2023/06/08 00:46:30;;;;;;;6.45;4.50;;;;;;;13.02;93.96;100578.81;5060777;28;20140;-59
2023/06/08 00:49:02;;;;;;;6.25;4.85;;;;;;;13.19;93.39;100571.44;5050016;28;20144;-59
2023/06/08 00:51:37;;;;;;;7.13;4.15;;;;;;;13.33;90.67;100574.66;5049664;28;20063;-62
2023/06/08 00:54:10;;;;;;;8.32;4.78;;;;;;;13.34;91.82;100589.47;5060423;28;20419;-60
2023/06/08 00:56:42;;;;;;;7.70;4.80;;;;;;;13.00;92.09;100588.47;5050516;28;20105;-59
2023/06/08 00:59:14;;;;;;;12.98;5.25;;;;;;;13.07;93.14;100603.19;5060299;28;20052;-60
2023/06/08 01:01:47;;;;;;;9.27;4.70;;;;;;;13.26;93.08;100586.13;5049398;28;20055;-60
2023/06/08 01:04:18;;;;;;;9.32;4.43;;;;;;;13.60;92.01;100593.25;5060523;28;20121;-60
2023/06/08 01:06:54;;;;;;;6.55;4.80;;;;;;;13.82;90.60;100573.47;5049903;28;20075;-60
2023/06/08 01:09:31;;;;;;;11.32;4.97;;;;;;;13.95;88.48;100604.69;5059624;28;20918;-60
2023/06/08 01:12:15;;;;;;;10.52;4.68;;;;;;;13.94;87.29;100589.84;5050151;28;20132;-60
2023/06/08 01:14:56;;;;;;;10.20;5.13;;;;;;;13.92;86.93;100589.84;5050005;28;20055;-59
2023/06/08 01:17:37;;;;;;;8.82;4.43;;;;;;;13.91;88.33;100566.28;5040990;28;20192;-59
2023/06/08 01:20:34;;;;;;;11.48;4.88;;;;;;;14.17;89.14;100563.81;5033816;28;20529;-57
2023/06/08 01:23:27;;;;;;;8.98;4.50;;;;;;;14.20;87.22;100565.50;5038723;28;20143;-59
2023/06/08 01:26:00;;;;;;;10.70;4.78;;;;;;;14.15;85.96;100570.91;5038621;28;20062;-58
2023/06/08 01:28:31;;;;;;;11.85;4.43;;;;;;;14.19;86.49;100572.53;5041442;28;20071;-58
2023/06/08 01:31:02;;;;;;;7.72;4.57;;;;;;;14.10;86.90;100578.00;5050909;28;20487;-60
2023/06/08 01:33:33;;;;;;;6.70;4.30;;;;;;;14.24;87.41;100570.63;5041761;28;20056;-61
2023/06/08 01:36:10;;;;;;;6.45;4.00;;;;;;;14.36;88.09;100547.56;5050517;28;20080;-60
2023/06/08 01:38:49;;;;;;;7.43;4.70;;;;;;;14.66;85.38;100557.25;5039147;28;20590;-58
2023/06/08 01:41:26;;;;;;;7.60;4.78;;;;;;;14.52;85.93;100512.03;5049121;28;20136;-61
2023/06/08 01:44:00;;;;;;;9.32;4.63;;;;;;;14.92;85.25;100546.88;5028355;28;20110;-58
2023/06/08 01:46:32;;;;;;;9.47;4.40;;;;;;;15.03;83.01;100555.31;5044711;28;20082;-59
2023/06/08 01:49:05;;;;;;;10.60;4.82;;;;;;;15.06;84.82;100549.97;5058998;28;20288;-60
2023/06/08 01:51:36;;;;;;;7.63;4.30;;;;;;;15.17;81.71;100552.25;5047823;28;20148;-59
2023/06/08 01:54:08;;;;;;;8.27;3.83;;;;;;;14.97;82.35;100539.69;5059779;28;20371;-59
2023/06/08 01:56:40;;;;;;;11.90;4.83;;;;;;;15.22;83.94;100561.72;5049443;28;20798;-61
2023/06/08 01:59:10;;;;;;;7.27;4.10;;;;;;;15.33;80.90;100564.03;5059322;28;20294;-60
2023/06/08 02:01:41;;;;;;;8.97;4.27;;;;;;;15.37;80.40;100560.38;5048735;28;20763;-61
2023/06/08 02:04:12;;;;;;;9.40;4.77;;;;;;;15.48;82.04;100565.34;5059172;28;20282;-60
2023/06/08 02:06:42;;;;;;;8.47;3.90;;;;;;;15.70;82.10;100557.59;5048769;28;20381;-59
2023/06/08 02:09:13;;;;;;;7.17;4.27;;;;;;;15.63;80.52;100562.22;5059071;28;20305;-58
2023/06/08 02:11:45;;;;;;;10.03;3.80;;;;;;;15.58;78.73;100573.81;5049174;28;20524;-58
2023/06/08 02:14:16;;;;;;;7.90;3.77;;;;;;;15.76;80.07;100570.59;5059116;28;20748;-60
2023/06/08 02:16:47;;;;;;;9.80;3.90;;;;;;;15.89;79.89;100569.28;5049131;28;20795;-58
2023/06/08 02:19:19;;;;;;;13.73;3.93;;;;;;;15.92;81.15;100577.06;5059068;28;20716;-60
2023/06/08 02:21:50;;;;;;;9.47;4.00;;;;;;;16.29;78.44;100583.72;5049043;28;20632;-59
2023/06/08 02:24:20;;;;;;;9.67;3.83;;;;;;;16.43;77.02;100579.75;5059078;28;20636;-60
2023/06/08 02:26:54;;;;;;;17.50;4.27;;;;;;;16.55;77.34;100590.72;5049824;28;20276;-60
2023/06/08 02:29:26;;;;;;;17.27;3.93;;;;;;;16.51;76.01;100594.38;5058815;28;20321;-60
2023/06/08 02:31:56;;;;;;;10.07;3.90;;;;;;;16.57;76.12;100588.91;5028707;28;20337;-59
2023/06/08 02:34:27;;;;;;;6.43;4.07;;;;;;;16.89;77.46;100586.88;5052356;28;20369;-59
2023/06/08 02:36:57;;;;;;;11.07;3.27;;;;;;;17.02;75.47;100582.88;5047479;28;20278;-61
2023/06/08 02:39:28;;;;;;;6.13;3.67;;;;;;;17.18;74.61;100583.13;5058962;28;20270;-60
2023/06/08 02:42:01;;;;;;;9.93;4.00;;;;;;;17.16;74.27;100577.06;5048070;28;20349;-60
2023/06/08 02:44:31;;;;;;;17.47;4.00;;;;;;;17.24;75.01;100568.81;5049723;28;20290;-59
2023/06/08 02:47:02;;;;;;;13.57;3.60;;;;;;;17.39;73.85;100567.38;5057890;28;20275;-59
2023/06/08 02:49:32;;;;;;;9.83;3.47;;;;;;;17.47;73.51;100565.28;5047880;28;20296;-59
2023/06/08 02:52:03;;;;;;;8.70;3.30;;;;;;;17.46;72.99;100574.13;5058161;28;20670;-59
2023/06/08 02:54:34;;;;;;;9.07;3.60;;;;;;;17.39;73.65;100540.94;5047868;28;20355;-60
2023/06/08 02:57:07;;;;;;;7.27;3.40;;;;;;;17.58;71.70;100541.94;5058304;28;20293;-57
2023/06/08 02:59:37;;;;;;;10.23;3.43;;;;;;;17.71;71.85;100546.72;5048399;28;20290;-59
2023/06/08 03:02:08;;;;;;;8.13;3.40;;;;;;;17.60;72.38;100550.66;5057668;28;20366;-60
2023/06/08 03:04:43;;;;;;;9.10;3.67;;;;;;;17.64;71.68;100557.53;5048037;28;20282;-58
2023/06/08 03:07:15;;;;;;;11.67;3.73;;;;;;;17.39;72.36;100519.81;5057817;28;20366;-60
2023/06/08 03:09:48;;;;;;;10.50;3.30;;;;;;;17.64;73.80;100552.25;5047412;28;20754;-60
2023/06/08 03:12:21;;;;;;;13.50;3.53;;;;;;;17.77;72.03;100557.03;5057495;28;21622;-57
2023/06/08 03:14:53;;;;;;;7.90;3.60;;;;;;;17.97;72.69;100562.38;5048220;28;20322;-60
2023/06/08 03:17:24;;;;;;;15.57;3.90;;;;;;;18.23;72.00;100560.41;5058582;28;20723;-59
2023/06/08 03:19:55;;;;;;;12.00;3.20;;;;;;;18.33;70.42;100545.84;5047696;28;20332;-57
2023/06/08 03:22:25;;;;;;;8.37;3.57;;;;;;;18.27;71.75;100540.81;5057650;28;20376;-58
2023/06/08 03:24:58;;;;;;;6.27;3.20;;;;;;;18.21;72.21;100541.09;5022730;28;20279;-60
2023/06/08 03:27:30;;;;;;;12.23;3.30;;;;;;;18.30;70.15;100519.53;5038364;28;20293;-60
2023/06/08 03:30:01;;;;;;;11.23;2.83;;;;;;;18.65;70.05;100541.75;5047385;28;21205;-60
2023/06/08 03:32:32;;;;;;;14.13;3.27;;;;;;;18.87;69.20;100541.69;5047668;28;20291;-60
2023/06/08 03:35:03;;;;;;;12.77;3.40;;;;;;;18.76;67.49;100559.81;5058169;28;20922;-58
2023/06/08 03:37:34;;;;;;;11.17;3.40;;;;;;;18.56;66.84;100551.91;5048162;28;20336;-59
2023/06/08 03:40:06;;;;;;;15.03;3.30;;;;;;;18.52;70.64;100546.75;5058182;28;20377;-60
2023/06/08 03:42:38;;;;;;;10.23;3.30;;;;;;;18.68;68.93;100559.28;5046732;28;20291;-60
2023/06/08 03:45:09;;;;;;;8.33;3.20;;;;;;;18.65;67.99;100547.06;5058283;28;21203;-59
2023/06/08 03:47:39;;;;;;;10.73;3.40;;;;;;;18.52;69.96;100553.81;5048587;28;20269;-58
2023/06/08 03:50:11;;;;;;;8.40;2.40;;;;;;;18.40;69.08;100547.28;5061806;28;20285;-60
2023/06/08 03:52:43;;;;;;;10.73;3.07;;;;;;;18.38;68.45;100511.25;5051664;28;20290;-59
2023/06/08 03:55:13;;;;;;;8.03;2.97;;;;;;;18.54;67.84;100529.00;5061656;28;20286;-61
2023/06/08 03:57:46;;;;;;;7.60;2.70;;;;;;;18.44;68.39;100527.69;5050975;28;20286;-60
2023/06/08 04:00:17;;;;;;;15.97;3.53;;;;;;;18.62;70.31;100535.72;5060916;28;20393;-59
2023/06/08 04:02:48;;;;;;;9.13;2.93;;;;;;;18.50;68.25;100538.03;5051576;28;20278;-58
2023/06/08 04:05:18;;;;;;;10.90;3.27;;;;;;;18.44;67.23;100532.97;5061965;28;20290;-60
2023/06/08 04:07:50;;;;;;;11.17;3.40;;;;;;;18.43;68.44;100526.00;5050993;28;20287;-61
2023/06/08 04:10:21;;;;;;;8.77;3.13;;;;;;;18.43;67.39;100531.28;5061194;28;20969;-58
2023/06/08 04:12:54;;;;;;;17.37;3.60;;;;;;;18.66;67.88;100521.44;5050500;28;20283;-59
2023/06/08 04:15:25;;;;;;;13.23;3.40;;;;;;;18.67;69.34;100523.16;5061241;28;20286;-60
2023/06/08 04:17:56;;;;;;;8.63;3.20;;;;;;;18.57;67.51;100528.03;5050169;28;20814;-60
2023/06/08 04:20:27;;;;;;;10.10;3.60;;;;;;;18.49;66.68;100520.41;5061864;28;20756;-58
2023/06/08 04:22:57;;;;;;;5.70;2.93;;;;;;;18.38;68.41;100522.69;5050506;28;20366;-59
2023/06/08 04:25:28;;;;;;;13.60;3.13;;;;;;;18.32;67.79;100501.78;5061105;28;20305;-59
2023/06/08 04:28:00;;;;;;;13.27;3.10;;;;;;;18.18;68.65;100534.16;5031075;28;20282;-60
2023/06/08 04:30:31;;;;;;;18.90;3.30;;;;;;;18.21;70.08;100535.81;5041712;28;20347;-60
2023/06/08 04:33:02;;;;;;;15.50;3.63;;;;;;;18.31;69.47;100531.81;5051395;28;20286;-60
2023/06/08 04:35:33;;;;;;;6.37;3.00;;;;;;;18.19;69.02;100530.56;5041757;28;21124;-59
2023/06/08 04:38:03;;;;;;;9.60;3.30;;;;;;;18.06;70.79;100527.59;5052006;28;20310;-60
2023/06/08 04:40:34;;;;;;;12.10;3.30;;;;;;;17.91;70.73;100536.19;5041035;28;20720;-59
2023/06/08 04:43:08;;;;;;;8.47;3.00;;;;;;;17.69;69.59;100539.69;5051349;28;20381;-59
2023/06/08 04:45:39;;;;;;;11.73;3.23;;;;;;;17.63;70.50;100534.69;5041485;28;20379;-58
2023/06/08 04:48:10;;;;;;;6.23;3.03;;;;;;;17.51;70.90;100540.47;5051353;28;20286;-58
2023/06/08 04:50:45;;;;;;;8.07;3.00;;;;;;;17.59;72.41;100541.00;5042207;28;20315;-59
2023/06/08 04:53:16;;;;;;;7.70;3.43;;;;;;;17.78;72.70;100542.91;5050804;28;20329;-59
2023/06/08 04:55:46;;;;;;;11.03;3.23;;;;;;;17.58;69.86;100541.94;5041664;28;20422;-59
2023/06/08 04:58:19;;;;;;;6.77;2.80;;;;;;;17.77;70.98;100557.03;5050690;28;20287;-59
2023/06/08 05:00:50;;;;;;;9.70;3.00;;;;;;;17.52;69.48;100562.44;5040896;28;20299;-59
2023/06/08 05:03:21;;;;;;;6.77;2.87;;;;;;;17.48;69.75;100545.88;5050729;28;20285;-59
2023/06/08 05:05:52;;;;;;;12.40;3.27;;;;;;;17.63;71.10;100555.81;5041199;28;20286;-61
2023/06/08 05:08:23;;;;;;;8.77;2.57;;;;;;;17.63;70.33;100554.97;5051653;28;20673;-61
2023/06/08 05:10:53;;;;;;;9.50;3.47;;;;;;;17.73;71.49;100566.00;5040509;28;20298;-59
2023/06/08 05:13:25;;;;;;;6.60;3.10;;;;;;;17.58;69.53;100575.44;5050541;28;20291;-60
2023/06/08 05:15:58;;;;;;;8.80;3.13;;;;;;;17.55;69.54;100579.06;5030489;28;20347;-60
2023/06/08 05:18:30;;;;;;;8.23;3.20;;;;;;;17.29;70.65;100572.16;5040641;28;20275;-60
2023/06/08 05:21:00;;;;;;;6.10;2.73;;;;;;;17.02;70.61;100584.63;5037098;28;20310;-59
2023/06/08 05:23:31;;;;;;;11.27;3.23;;;;;;;16.89;71.83;100580.75;5026501;28;20334;-59
2023/06/08 05:26:01;;;;;;;6.70;2.90;;;;;;;16.83;72.16;100583.63;5048328;28;20320;-62
2023/06/08 05:28:34;;;;;;;9.30;3.03;;;;;;;17.04;71.69;100588.06;5040030;28;20291;-58
2023/06/08 05:31:04;;;;;;;11.67;2.87;;;;;;;16.57;69.08;100519.44;5050475;28;20351;-59
2023/06/08 05:33:35;;;;;;;11.37;2.60;;;;;;;16.98;69.47;100601.53;5040524;28;20684;-59
2023/06/08 05:36:06;;;;;;;12.07;2.77;;;;;;;16.91;69.27;100602.66;5050703;28;20290;-61
2023/06/08 05:38:37;;;;;;;6.37;2.40;;;;;;;16.87;69.50;100601.03;5040034;28;20340;-58
2023/06/08 05:41:08;;;;;;;7.73;2.80;;;;;;;16.77;68.87;100601.38;5048083;28;21078;-60
2023/06/08 05:43:49;;;;;;;9.17;2.30;;;;;;;16.83;69.75;100594.19;5038874;28;20298;-60
2023/06/08 05:46:19;;;;;;;9.03;3.23;;;;;;;16.83;70.49;100588.91;5050714;28;20286;-58
2023/06/08 05:48:50;;;;;;;10.27;3.00;;;;;;;17.04;70.48;100598.63;5040428;28;20271;-59
2023/06/08 05:51:20;;;;;;;8.33;3.30;;;;;;;17.21;68.85;100590.09;5050374;28;20286;-58
2023/06/08 05:53:51;;;;;;;13.87;3.23;;;;;;;17.14;69.70;100586.81;5040730;28;20362;-59
2023/06/08 05:56:22;;;;;;;9.17;3.30;;;;;;;17.06;67.83;100575.69;5050924;28;20351;-61
2023/06/08 05:58:54;;;;;;;7.27;3.13;;;;;;;17.30;68.32;100588.84;5039703;28;20920;-60
2023/06/08 06:01:25;;;;;;;10.33;2.97;;;;;;;17.03;68.28;100586.38;5050244;28;20290;-59
2023/06/08 06:03:55;;;;;;;8.80;3.70;;;;;;;16.74;69.26;100593.53;5039569;28;20379;-59
2023/06/08 06:06:26;;;;;;;23.20;3.57;;;;;;;16.64;70.14;100594.81;5050505;28;20316;-59
2023/06/08 06:08:57;;;;;;;9.90;3.30;;;;;;;16.51;69.28;100594.38;5048938;28;20312;-60
2023/06/08 06:11:27;;;;;;;13.73;4.30;;;;;;;16.47;70.20;100602.47;5059160;28;20310;-59
2023/06/08 06:14:00;;;;;;;12.60;3.13;;;;;;;16.41;70.26;100598.25;5047512;28;20289;-59
2023/06/08 06:16:31;;;;;;;23.27;4.43;;;;;;;16.58;71.04;100600.31;5051137;28;20339;-58
2023/06/08 06:19:02;;;;;;;9.10;3.53;;;;;;;16.72;69.53;100603.28;5057958;28;20287;-60
2023/06/08 06:21:32;;;;;;;10.00;3.30;;;;;;;16.42;69.64;100585.94;5046843;28;20343;-60
2023/06/08 06:24:03;;;;;;;10.30;3.80;;;;;;;16.19;70.57;100598.16;5057583;28;20274;-60
2023/06/08 06:26:34;;;;;;;12.27;3.37;;;;;;;15.89;70.36;100606.16;5048348;28;20321;-59
2023/06/08 06:29:06;;;;;;;14.83;3.80;;;;;;;15.72;71.59;100611.13;5057468;28;20265;-61
2023/06/08 06:31:36;;;;;;;11.40;3.13;;;;;;;15.72;71.97;100608.47;5047023;28;20282;-61
2023/06/08 06:34:07;;;;;;;12.73;3.53;;;;;;;15.80;71.80;100617.03;5057903;28;20385;-60
2023/06/08 06:36:38;;;;;;;13.93;3.40;;;;;;;15.67;71.69;100621.75;5047737;28;21140;-61
2023/06/08 06:39:08;;;;;;;10.20;3.37;;;;;;;15.60;72.94;100625.53;5058129;28;20324;-59
2023/06/08 06:41:42;;;;;;;14.17;3.20;;;;;;;15.64;72.66;100631.56;5048013;28;20336;-60
2023/06/08 06:44:14;;;;;;;9.83;3.50;;;;;;;15.61;71.90;100629.03;5057678;28;20314;-61
2023/06/08 06:46:45;;;;;;;6.43;3.10;;;;;;;15.56;71.76;100625.66;5047287;28;20709;-59
2023/06/08 06:49:16;;;;;;;14.83;3.40;;;;;;;15.57;71.55;100637.91;5057925;28;20274;-61
2023/06/08 06:51:46;;;;;;;9.23;2.87;;;;;;;15.49;71.98;100641.66;5047051;28;20278;-61
2023/06/08 06:54:17;;;;;;;7.90;2.70;;;;;;;15.47;73.16;100650.50;5057930;28;20278;-60
2023/06/08 06:56:47;;;;;;;9.17;3.00;;;;;;;15.44;72.34;100645.34;5048005;28;20292;-60
2023/06/08 06:59:20;;;;;;;17.53;3.30;;;;;;;15.29;73.55;100650.13;5037553;28;20850;-59
2023/06/08 07:01:51;;;;;;;7.80;2.87;;;;;;;15.21;73.13;100643.41;5029669;28;20283;-59
2023/06/08 07:04:22;;;;;;;5.40;3.00;;;;;;;15.01;74.00;100647.47;5039052;28;20283;-62
2023/06/08 07:06:56;;;;;;;17.40;3.40;;;;;;;14.96;74.55;100651.13;5037050;28;20283;-58
2023/06/08 07:09:26;;;;;;;9.33;3.10;;;;;;;14.77;75.62;100640.25;5058200;28;20282;-61
2023/06/08 07:11:57;;;;;;;17.67;3.73;;;;;;;14.73;75.52;100639.50;5049163;28;20286;-63
2023/06/08 07:14:46;;;;;;;9.50;3.20;;;;;;;14.59;76.54;100655.63;5049020;28;20364;-59
2023/06/08 07:17:17;;;;;;;4.73;2.70;;;;;;;14.34;76.53;100649.25;5058735;28;20306;-59
2023/06/08 07:19:48;;;;;;;8.40;3.60;;;;;;;14.30;78.13;100652.84;5048952;28;21039;-60
2023/06/08 07:22:19;;;;;;;15.07;3.27;;;;;;;14.30;77.43;100653.72;5060768;28;20282;-61
2023/06/08 07:25:11;;;;;;;8.87;3.47;;;;;;;14.29;78.20;100656.41;5051628;28;20293;-62
2023/06/08 07:28:01;;;;;;;15.27;3.77;;;;;;;14.15;77.87;100647.09;5051051;28;20286;-60
2023/06/08 07:30:37;;;;;;;9.43;3.00;;;;;;;13.99;77.94;100643.13;5050179;28;20317;-60
2023/06/08 07:33:08;;;;;;;11.15;2.95;;;;;;;14.06;78.94;100649.97;5060325;28;20373;-61
2023/06/08 07:35:39;;;;;;;9.02;2.95;;;;;;;14.07;78.05;100662.19;5050933;28;20052;-61
2023/06/08 07:38:10;;;;;;;9.53;2.70;;;;;;;14.04;78.34;100662.25;5059608;28;20074;-62
2023/06/08 07:40:40;;;;;;;10.13;2.60;;;;;;;14.08;78.51;100668.28;5047377;28;20369;-59
2023/06/08 07:43:11;;;;;;;10.25;2.50;;;;;;;13.75;77.80;100628.81;5060534;28;20056;-59
2023/06/08 07:45:43;;;;;;;14.38;2.70;;;;;;;13.95;78.03;100672.97;5047056;28;20062;-60
2023/06/08 07:48:14;;;;;;;5.75;2.97;;;;;;;13.92;77.71;100679.16;5060198;28;20060;-60
2023/06/08 07:50:44;;;;;;;5.55;2.30;;;;;;;13.88;78.17;100676.66;5050749;28;20059;-61
2023/06/08 07:53:15;;;;;;;9.32;3.00;;;;;;;13.67;77.65;100668.38;5061579;28;21293;-61
2023/06/08 07:55:46;;;;;;;14.95;2.78;;;;;;;13.68;78.12;100679.72;5051221;28;20063;-62
2023/06/08 07:58:16;;;;;;;16.17;3.05;;;;;;;13.45;78.33;100672.38;5061111;28;20154;-60
2023/06/08 08:00:49;;;;;;;30.17;3.72;;;;;;;13.64;78.49;100684.19;5050905;28;20055;-62
2023/06/08 08:03:19;;;;;;;12.02;3.00;;;;;;;13.88;78.23;100684.53;5061506;28;20543;-62
2023/06/08 08:05:50;;;;;;;11.30;3.28;;;;;;;14.03;77.11;100671.06;5061345;28;20056;-61
2023/06/08 08:08:20;;;;;;;9.43;2.83;;;;;;;14.06;76.18;100678.00;5057060;28;20083;-60
2023/06/08 08:10:51;;;;;;;23.20;3.75;;;;;;;14.07;76.69;100677.94;5055930;28;20062;-60
2023/06/08 08:13:22;;;;;;;22.48;3.55;;;;;;;14.15;76.00;100685.63;5055127;28;20044;-59
2023/06/08 08:15:54;;;;;;;19.23;3.20;;;;;;;14.09;76.59;100691.91;5053587;28;20445;-62
2023/06/08 08:18:25;;;;;;;18.08;3.40;;;;;;;14.12;76.25;100691.84;5054909;28;20294;-59
2023/06/08 08:20:55;;;;;;;16.50;3.55;;;;;;;13.94;76.55;100692.28;5041357;28;20052;-61
2023/06/08 08:23:26;;;;;;;13.50;3.33;;;;;;;13.75;76.98;100692.72;5054575;28;20446;-59
2023/06/08 08:25:57;;;;;;;10.10;2.95;;;;;;;13.63;78.00;100682.50;5018084;28;20049;-60
2023/06/08 08:28:29;;;;;;;10.57;3.00;;;;;;;13.55;78.39;100694.91;5035199;28;20086;-62
2023/06/08 08:31:02;;;;;;;10.48;3.13;;;;;;;13.60;78.45;100693.03;5025156;28;20048;-60
2023/06/08 08:33:32;;;;;;;10.85;3.42;;;;;;;13.59;78.66;100693.94;5024980;28;20047;-61
2023/06/08 08:36:03;;;;;;;15.40;3.17;;;;;;;13.55;78.19;100705.41;5032764;28;20103;-60
2023/06/08 08:38:34;;;;;;;16.98;3.40;;;;;;;13.48;78.54;100703.78;5033628;28;20150;-60
2023/06/08 08:41:08;;;;;;;9.57;3.20;;;;;;;13.26;78.76;100666.63;5059561;28;20063;-59
2023/06/08 08:43:49;;;;;;;16.42;2.80;;;;;;;13.33;79.06;100713.75;5046815;28;20048;-61
2023/06/08 08:46:25;;;;;;;11.50;2.58;;;;;;;13.17;79.38;100720.16;5060432;28;20056;-59
2023/06/08 08:49:00;;;;;;;18.05;3.40;;;;;;;12.68;80.32;100631.91;5025555;28;20068;-59
2023/06/08 08:51:38;;;;;;;22.48;3.35;;;;;;;13.12;79.67;100716.75;5039385;28;20052;-59
2023/06/08 08:54:09;;;;;;;18.42;3.63;;;;;;;13.06;80.52;100722.13;5050815;28;20135;-60
2023/06/08 08:56:40;;;;;;;17.73;3.60;;;;;;;13.04;80.76;100726.53;5040728;28;20072;-59
2023/06/08 08:59:13;;;;;;;20.65;4.00;;;;;;;12.89;80.59;100725.94;5051227;28;20130;-59
2023/06/08 09:01:45;;;;;;;10.95;2.95;;;;;;;12.72;81.34;100728.00;5041438;28;20133;-61
2023/06/08 09:04:20;;;;;;;17.13;3.20;;;;;;;12.35;81.56;100691.91;5051559;28;20562;-59
2023/06/08 09:06:52;;;;;;;12.95;3.50;;;;;;;12.42;82.73;100745.09;5040263;28;20052;-59
2023/06/08 09:09:29;;;;;;;11.27;3.42;;;;;;;12.07;82.57;100718.56;5050230;28;20052;-59
2023/06/08 09:12:00;;;;;;;8.55;2.67;;;;;;;12.13;83.55;100748.19;5023969;28;20156;-60
2023/06/08 09:14:31;;;;;;;12.30;3.17;;;;;;;11.71;84.54;100700.75;5032825;28;20048;-59
2023/06/08 09:17:07;;;;;;;8.57;2.80;;;;;;;11.68;84.76;100763.59;5050501;28;20047;-61
2023/06/08 09:19:52;;;;;;;14.88;3.45;;;;;;;11.56;85.85;100762.91;5039593;28;20794;-61
2023/06/08 09:22:30;;;;;;;13.20;3.50;;;;;;;11.38;86.59;100755.25;5050546;28;20067;-60
2023/06/08 09:25:04;;;;;;;21.00;4.07;;;;;;;11.49;86.77;100776.94;5030569;28;20048;-61
2023/06/08 09:27:37;;;;;;;9.23;3.58;;;;;;;11.39;86.59;100785.78;5034682;28;20745;-61
2023/06/08 09:30:30;;;;;;;18.10;3.20;;;;;;;11.37;86.97;100792.78;5050844;28;20053;-61
2023/06/08 09:36:23;;;;;;;7.32;2.85;;;;;;;10.76;89.16;100789.91;5035062;28;20442;-60
2023/06/08 09:39:02;;;;;;;10.02;3.58;;;;;;;10.47;90.72;100781.44;5038587;28;20055;-61
2023/06/08 09:41:37;;;;;;;14.82;4.10;;;;;;;10.30;91.97;100769.34;4995211;28;20312;-61
2023/06/08 09:44:21;;;;;;;7.57;3.50;;;;;;;10.30;92.30;100800.69;5038647;28;20403;-59
2023/06/08 09:46:52;;;;;;;8.07;3.80;;;;;;;10.29;93.50;100814.63;5037350;28;20493;-61
2023/06/08 09:49:55;;;;;;;7.90;3.80;;;;;;;10.24;93.93;100820.75;5050275;28;20491;-60
2023/06/08 09:52:44;;;;;;;9.70;4.38;;;;;;;10.26;94.73;100829.41;5048537;28;20079;-61
2023/06/08 09:59:39;;;;;;;;;;;;;;;;;;;;;
2023/06/08 10:02:21;;;;;;;8.38;3.83;;;;;;;9.89;96.65;100846.16;4977242;28;20071;-61
2023/06/08 10:04:57;;;;;;;8.75;4.03;;;;;;;9.69;97.41;100837.53;5045360;28;20167;-59
2023/06/08 10:07:36;;;;;;;9.10;4.20;;;;;;;9.40;98.50;100799.34;5058723;28;20060;-60
2023/06/08 10:10:16;;;;;;;6.97;3.63;;;;;;;9.61;99.16;100850.59;5049276;28;20062;-62
2023/06/08 10:12:53;;;;;;;22.23;5.53;;;;;;;9.41;99.63;100811.53;5046595;28;20500;-61
2023/06/08 10:15:25;;;;;;;12.07;4.80;;;;;;;9.39;99.56;100812.41;5059407;28;20772;-61
2023/06/08 10:17:57;;;;;;;8.85;4.20;;;;;;;9.61;99.73;100850.59;5030521;28;20055;-62
2023/06/08 10:20:38;;;;;;;9.52;3.88;;;;;;;9.62;99.58;100848.84;5032596;28;20848;-61
2023/06/08 10:23:16;;;;;;;6.47;3.97;;;;;;;9.49;100.00;100841.06;5046382;28;20148;-61
2023/06/08 10:25:50;;;;;;;15.02;4.93;;;;;;;9.40;100.00;100835.88;5046779;28;21174;-62
2023/06/08 10:28:27;;;;;;;6.57;3.88;;;;;;;9.39;100.00;100834.13;5059484;28;20052;-62
2023/06/08 10:31:00;;;;;;;20.73;4.88;;;;;;;9.32;100.00;100837.63;5047771;28;20052;-62
2023/06/08 10:33:42;;;;;;;25.88;5.43;;;;;;;9.28;100.00;100830.66;5048110;28;20055;-62
2023/06/08 10:36:15;;;;;;;13.23;5.28;;;;;;;9.34;100.00;100838.50;5059454;28;20052;-60
2023/06/08 10:39:12;;;;;;;9.68;4.60;;;;;;;9.31;100.00;100835.91;5048404;28;20087;-59
2023/06/08 10:41:45;;;;;;;13.05;5.88;;;;;;;8.95;100.00;100782.94;5049431;28;20062;-61
2023/06/08 10:44:29;;;;;;;11.20;5.50;;;;;;;9.19;100.00;100830.72;5059005;28;20048;-60
2023/06/08 10:47:03;;;;;;;11.52;5.38;;;;;;;9.02;100.00;100815.94;5029025;28;20068;-62
2023/06/08 10:49:36;;;;;;;17.50;6.43;;;;;;;8.78;100.00;100774.25;5029326;28;20044;-60
2023/06/08 10:52:10;;;;;;;9.93;5.60;;;;;;;9.17;100.00;100837.66;5040028;28;20049;-61
2023/06/08 10:55:30;;;;;;;21.23;6.60;;;;;;;9.13;100.00;100826.34;5028759;28;20060;-63
2023/06/08 10:58:07;;;;;;;10.05;6.20;;;;;;;9.10;100.00;100830.72;4999384;28;20064;-62
2023/06/08 11:00:47;;;;;;;13.05;6.32;;;;;;;9.09;100.00;100834.22;5051410;28;20052;-60
2023/06/08 11:03:21;;;;;;;14.05;6.30;;;;;;;9.18;100.00;100844.59;5063052;28;20120;-60
2023/06/08 11:05:54;;;;;;;13.82;6.68;;;;;;;9.05;100.00;100817.69;5052557;28;20055;-61
2023/06/08 11:08:28;;;;;;;14.88;6.18;;;;;;;9.19;100.00;100862.00;5060223;28;20059;-60
2023/06/08 11:11:00;;;;;;;10.98;6.35;;;;;;;9.16;100.00;100867.19;5052176;28;20060;-60
2023/06/08 11:13:34;;;;;;;12.20;7.00;;;;;;;9.09;100.00;100861.13;5057123;28;20225;-60
2023/06/08 11:16:06;;;;;;;13.82;6.18;;;;;;;9.06;100.00;100866.31;5063204;28;20056;-61
2023/06/08 11:18:37;;;;;;;11.25;5.57;;;;;;;8.97;100.00;100867.22;5052304;28;20766;-60
2023/06/08 11:21:11;;;;;;;11.65;6.00;;;;;;;8.92;100.00;100871.56;5062224;28;20562;-60
2023/06/08 11:23:44;;;;;;;13.70;6.53;;;;;;;8.91;100.00;100882.88;5052239;28;20054;-60
2023/06/08 11:26:16;;;;;;;9.00;5.57;;;;;;;8.89;100.00;100879.38;5062453;28;20051;-60
2023/06/08 11:28:49;;;;;;;12.43;7.03;;;;;;;8.65;100.00;100864.59;5051624;28;20070;-60
2023/06/08 11:31:21;;;;;;;14.68;6.28;;;;;;;8.63;100.00;100861.97;5062654;28;20537;-60
2023/06/08 11:33:56;;;;;;;13.48;5.10;;;;;;;8.64;100.00;100874.16;5051498;28;20047;-60
2023/06/08 11:36:27;;;;;;;12.05;6.40;;;;;;;8.49;100.00;100858.50;5062222;28;20044;-59
2023/06/08 11:39:03;;;;;;;12.07;5.53;;;;;;;8.74;100.00;100895.00;5051572;28;20079;-60
2023/06/08 11:41:34;;;;;;;10.13;6.40;;;;;;;8.64;100.00;100900.19;5051191;28;20224;-59
2023/06/08 11:44:06;;;;;;;11.30;7.25;;;;;;;8.68;100.00;100894.97;5062787;28;20080;-61
2023/06/08 11:46:38;;;;;;;13.75;6.85;;;;;;;8.66;100.00;100909.75;5051333;28;20773;-60
2023/06/08 11:49:11;;;;;;;9.73;6.05;;;;;;;8.67;100.00;100919.31;5063172;28;20048;-60
2023/06/08 11:51:49;;;;;;;9.98;6.57;;;;;;;8.57;100.00;100893.22;5052176;28;20056;-60
2023/06/08 11:54:22;;;;;;;17.10;7.20;;;;;;;7.93;100.00;100794.09;5062450;28;20056;-61
2023/06/08 11:56:54;;;;;;;13.07;7.38;;;;;;;8.69;100.00;100917.59;5051424;28;20479;-60